createdAt,value
2023-03-12T09:11:36.864Z,100668.84
2023-03-12T09:14:42.360Z,100679.78
2023-03-12T09:16:50.106Z,100673.41
2023-03-12T09:19:16.606Z,100663.38
2023-03-12T09:21:43.261Z,100663.91
2023-03-12T09:24:10.112Z,100662.81
2023-03-12T09:26:36.509Z,100657.50
2023-03-12T09:29:02.879Z,100659.59
2023-03-12T09:31:29.236Z,100647.19
2023-03-12T09:33:55.642Z,100655.28
2023-03-12T09:36:22.006Z,100654.06
2023-03-12T09:38:48.423Z,100660.63
2023-03-12T09:41:25.175Z,100661.66
2023-03-12T09:44:14.217Z,100657.94
2023-03-12T09:47:03.661Z,100648.84
2023-03-12T09:49:46.619Z,100649.63
2023-03-12T09:52:24.481Z,100654.13
2023-03-12T09:55:07.050Z,100652.81
2023-03-12T09:57:34.238Z,100648.03
2023-03-12T10:00:00.993Z,100640.81
2023-03-12T10:02:51.483Z,100644.28
2023-03-12T10:05:26.237Z,100638.28
2023-03-12T10:08:07.623Z,100628.84
2023-03-12T10:11:05.259Z,100634.69
2023-03-12T10:13:37.568Z,100631.34
2023-03-12T10:16:12.780Z,100623.09
2023-03-12T10:19:03.837Z,100628.72
2023-03-12T10:21:40.601Z,100626.84
2023-03-12T10:24:28.801Z,100619.28
2023-03-12T10:26:57.772Z,100621.88
2023-03-12T10:29:30.706Z,100609.38
2023-03-12T10:32:08.323Z,100608.66
2023-03-12T10:34:41.108Z,100600.53
2023-03-12T10:37:26.640Z,100607.72
2023-03-12T10:39:55.451Z,100604.16
2023-03-12T10:42:24.835Z,100606.97
2023-03-12T10:44:53.832Z,100598.97
2023-03-12T10:47:35.417Z,100598.66
2023-03-12T10:50:19.216Z,100591.59
2023-03-12T10:52:47.659Z,100599.50
2023-03-12T10:55:22.902Z,100582.63
2023-03-12T10:57:50.241Z,100581.06
2023-03-12T11:00:22.385Z,100575.31
2023-03-12T11:02:56.189Z,100567.34
2023-03-12T11:05:26.080Z,100574.66
2023-03-12T11:07:52.911Z,100573.25
2023-03-12T11:10:25.575Z,100567.31
2023-03-12T11:13:01.583Z,100565.94
2023-03-12T11:15:36.884Z,100563.31
2023-03-12T11:18:24.049Z,100563.19
2023-03-12T11:20:56.472Z,100548.97
2023-03-12T11:23:29.563Z,100557.03
2023-03-12T11:26:03.720Z,100556.72
2023-03-12T11:28:39.307Z,100547.22
2023-03-12T11:31:11.629Z,100540.38
2023-03-12T11:33:38.114Z,100543.63
2023-03-12T11:36:34.348Z,100535.31
2023-03-12T11:39:08.852Z,100537.19
2023-03-12T11:41:56.088Z,100541.13
2023-03-12T11:44:42.785Z,100543.59
2023-03-12T11:47:32.402Z,100537.28
2023-03-12T11:50:39.160Z,100521.91
2023-03-12T11:53:49.973Z,100524.53
2023-03-12T11:56:27.514Z,100520.72
2023-03-12T11:59:09.301Z,100529.88
2023-03-12T12:01:51.205Z,100522.63
2023-03-12T12:04:45.910Z,100526.84
2023-03-12T12:07:34.896Z,100505.19
2023-03-12T12:10:27.241Z,100497.81
2023-03-12T12:13:18.197Z,100484.19
2023-03-12T12:16:09.678Z,100489.00
2023-03-12T12:19:05.707Z,100470.22
2023-03-12T12:21:44.580Z,100465.16
2023-03-12T12:24:29.453Z,100469.13
2023-03-12T12:27:18.652Z,100459.34
2023-03-12T12:30:05.570Z,100434.00
2023-03-12T12:32:38.261Z,100429.16
2023-03-12T12:35:24.927Z,100438.75
2023-03-12T12:38:01.670Z,100415.28
2023-03-12T12:40:37.788Z,100414.97
2023-03-12T12:43:15.603Z,100418.94
2023-03-12T12:45:42.438Z,100411.09
2023-03-12T12:48:34.841Z,100417.50
2023-03-12T12:51:04.009Z,100405.47
2023-03-12T12:53:48.363Z,100405.22
2023-03-12T12:56:44.967Z,100398.59
2023-03-12T12:59:31.564Z,100405.28
2023-03-12T13:01:59.607Z,100412.38
2023-03-12T13:04:31.962Z,100417.34
2023-03-12T13:07:25.832Z,100404.88
2023-03-12T13:09:56.161Z,100405.19
2023-03-12T13:12:30.917Z,100392.03
2023-03-12T13:14:58.450Z,100387.56
2023-03-12T13:17:29.315Z,100391.47
2023-03-12T13:20:01.989Z,100385.75
2023-03-12T13:22:37.644Z,100390.81
2023-03-12T13:25:19.977Z,100380.75
2023-03-12T13:27:46.528Z,100379.19
2023-03-12T13:30:34.409Z,100378.84
2023-03-12T13:33:03.633Z,100367.69
2023-03-12T13:35:39.650Z,100367.16
2023-03-12T13:38:12.488Z,100373.31
2023-03-12T13:40:54.464Z,100369.47
2023-03-12T13:43:33.258Z,100376.09
2023-03-12T13:46:00.582Z,100367.91
2023-03-12T13:48:27.390Z,100357.66
2023-03-12T13:50:56.985Z,100348.66
2023-03-12T13:53:33.625Z,100358.28
2023-03-12T13:56:11.362Z,100369.28
2023-03-12T13:58:47.977Z,100346.44
2023-03-12T14:01:19.045Z,100357.31
2023-03-12T14:03:51.738Z,100356.91
2023-03-12T14:06:21.155Z,100346.41
2023-03-12T14:08:59.950Z,100339.28
2023-03-12T14:11:34.235Z,100346.66
2023-03-12T14:14:31.428Z,100349.50
2023-03-12T14:17:00.325Z,100344.03
2023-03-12T14:19:29.768Z,100343.09
2023-03-12T14:21:59.890Z,100340.25
2023-03-12T14:24:32.865Z,100344.69
2023-03-12T14:27:00.925Z,100346.88
2023-03-12T14:29:48.510Z,100330.34
2023-03-12T14:32:20.517Z,100342.09
2023-03-12T14:34:53.606Z,100341.28
2023-03-12T14:37:43.334Z,100354.03
2023-03-12T14:40:38.264Z,100351.19
2023-03-12T14:43:23.904Z,100348.06
2023-03-12T14:45:52.202Z,100355.88
2023-03-12T14:48:24.222Z,100347.84
2023-03-12T14:50:50.840Z,100339.91
2023-03-12T14:53:24.436Z,100344.81
2023-03-12T14:56:14.868Z,100343.94
2023-03-12T14:58:47.335Z,100333.63
2023-03-12T15:01:18.151Z,100319.91
2023-03-12T15:03:51.075Z,100319.91
2023-03-12T15:06:30.314Z,100308.38
2023-03-12T15:08:57.882Z,100307.53
2023-03-12T15:11:27.381Z,100308.84
2023-03-12T15:13:55.861Z,100300.31
2023-03-12T15:16:23.079Z,100298.34
2023-03-12T15:18:50.398Z,100297.03
2023-03-12T15:21:16.995Z,100291.44
2023-03-12T15:23:46.724Z,100289.94
2023-03-12T15:26:19.212Z,100290.66
2023-03-12T15:29:26.113Z,100289.53
2023-03-12T15:32:00.851Z,100305.22
2023-03-12T15:34:37.133Z,100299.22
2023-03-12T15:37:20.630Z,100291.22
2023-03-12T15:39:52.629Z,100298.81
2023-03-12T15:42:24.870Z,100287.56
2023-03-12T15:45:02.795Z,100301.00
2023-03-12T15:47:32.004Z,100284.16
2023-03-12T15:50:03.217Z,100276.44
2023-03-12T15:52:33.095Z,100274.69
2023-03-12T15:55:05.279Z,100291.06
2023-03-12T15:57:34.131Z,100283.31
2023-03-12T16:00:16.632Z,100283.47
2023-03-12T16:02:58.682Z,100281.63
2023-03-12T16:05:37.606Z,100268.38
2023-03-12T16:08:28.778Z,100262.66
2023-03-12T16:10:56.324Z,100261.25
2023-03-12T16:13:28.362Z,100263.81
2023-03-12T16:15:55.046Z,100248.91
2023-03-12T16:18:22.945Z,100250.16
2023-03-12T16:20:51.497Z,100249.81
2023-03-12T16:23:18.917Z,100241.69
2023-03-12T16:25:47.988Z,100253.63
2023-03-12T16:28:16.909Z,100264.84
2023-03-12T16:30:43.424Z,100253.31
2023-03-12T16:33:15.260Z,100233.44
2023-03-12T16:35:41.728Z,100236.78
2023-03-12T16:38:08.475Z,100227.94
2023-03-12T16:40:37.801Z,100230.88
2023-03-12T16:43:07.045Z,100224.72
2023-03-12T16:45:37.322Z,100231.50
2023-03-12T16:48:06.104Z,100236.78
2023-03-12T16:50:32.641Z,100243.22
2023-03-12T16:52:59.671Z,100236.31
2023-03-12T16:55:28.559Z,100242.41
2023-03-12T16:58:00.742Z,100240.72
2023-03-12T17:00:30.229Z,100246.25
2023-03-12T17:02:59.968Z,100231.44
2023-03-12T17:05:28.691Z,100241.06
2023-03-12T17:07:56.054Z,100236.84
2023-03-12T17:10:24.082Z,100229.16
2023-03-12T17:12:50.780Z,100221.16
2023-03-12T17:15:21.588Z,100219.63
2023-03-12T17:17:48.631Z,100211.94
2023-03-12T17:20:17.049Z,100225.09
2023-03-12T17:22:43.892Z,100223.09
2023-03-12T17:25:20.054Z,100224.28
2023-03-12T17:27:46.413Z,100223.91
2023-03-12T17:30:13.173Z,100219.38
2023-03-12T17:32:39.623Z,100211.38
2023-03-12T17:35:06.786Z,100203.59
2023-03-12T17:37:34.203Z,100210.00
2023-03-12T17:40:11.032Z,100208.59
2023-03-12T17:42:38.661Z,100213.50
2023-03-12T17:45:07.859Z,100206.97
2023-03-12T17:47:34.999Z,100209.38
2023-03-12T17:50:01.395Z,100208.03
2023-03-12T17:52:27.759Z,100210.53
2023-03-12T17:54:54.217Z,100211.97
2023-03-12T17:57:20.572Z,100212.47
2023-03-12T17:59:47.030Z,100211.78
2023-03-12T18:02:14.323Z,100208.75
2023-03-12T18:04:40.765Z,100216.19
2023-03-12T18:07:07.166Z,100207.56
2023-03-12T18:09:33.510Z,100191.50
2023-03-12T18:11:59.898Z,100187.50
2023-03-12T18:14:26.277Z,100187.78
2023-03-12T18:16:52.668Z,100178.66
2023-03-12T18:19:19.264Z,100176.53
2023-03-12T18:21:45.633Z,100186.72
2023-03-12T18:24:14.499Z,100179.91
2023-03-12T18:26:41.333Z,100173.31
2023-03-12T18:29:07.699Z,100176.81
2023-03-12T18:31:34.457Z,100170.34
2023-03-12T18:34:00.850Z,100176.16
2023-03-12T18:36:27.274Z,100172.16
2023-03-12T18:38:53.624Z,100169.56
2023-03-12T18:41:19.989Z,100163.25
2023-03-12T18:43:46.363Z,100167.22
2023-03-12T18:46:13.039Z,100168.84
2023-03-12T18:48:40.879Z,100165.91
2023-03-12T18:51:08.137Z,100159.66
2023-03-12T18:53:34.484Z,100162.97
2023-03-12T18:56:00.888Z,100154.75
2023-03-12T18:58:27.926Z,100157.50
2023-03-12T19:00:55.673Z,100151.91
2023-03-12T19:03:23.047Z,100145.47
2023-03-12T19:05:59.781Z,100144.06
2023-03-12T19:08:26.142Z,100141.72
2023-03-12T19:10:52.527Z,100128.97
2023-03-12T19:13:18.873Z,100145.94
2023-03-12T19:15:46.042Z,100128.69
2023-03-12T19:18:12.410Z,100115.47
2023-03-12T19:20:39.046Z,100126.03
2023-03-12T19:23:05.500Z,100110.38
2023-03-12T19:25:32.075Z,100110.44
2023-03-12T19:27:58.507Z,100117.06
2023-03-12T19:30:30.384Z,100108.41
2023-03-12T19:32:56.838Z,100112.09
2023-03-12T19:35:23.274Z,100117.75
2023-03-12T19:37:49.669Z,100108.59
2023-03-12T19:40:16.341Z,100115.25
2023-03-12T19:42:42.768Z,100116.63
2023-03-12T19:45:10.452Z,100115.34
2023-03-12T19:47:36.812Z,100114.47
2023-03-12T19:50:03.359Z,100114.09
2023-03-12T19:52:30.013Z,100112.78
2023-03-12T19:55:04.276Z,100106.97
2023-03-12T19:57:31.425Z,100111.69
2023-03-12T19:59:57.807Z,100118.22
2023-03-12T20:02:24.357Z,100113.78
2023-03-12T20:04:50.803Z,100104.53
2023-03-12T20:07:18.443Z,100121.94
2023-03-12T20:09:44.828Z,100112.94
2023-03-12T20:12:11.366Z,100109.50
2023-03-12T20:14:37.750Z,100097.03
2023-03-12T20:17:04.127Z,100097.84
2023-03-12T20:19:30.497Z,100101.63
2023-03-12T20:21:57.271Z,100094.34
2023-03-12T20:24:23.958Z,100101.91
2023-03-12T20:26:50.340Z,100103.31
2023-03-12T20:29:16.709Z,100101.19
2023-03-12T20:31:43.347Z,100090.81
2023-03-12T20:34:09.925Z,100096.56
2023-03-12T20:36:36.320Z,100086.75
2023-03-12T20:39:02.772Z,100094.28
2023-03-12T20:41:29.203Z,100091.91
2023-03-12T20:43:57.433Z,100090.88
2023-03-12T20:46:24.247Z,100089.09
2023-03-12T20:48:51.322Z,100089.50
2023-03-12T20:51:18.419Z,100097.50
2023-03-12T20:53:56.262Z,100080.34
2023-03-12T20:56:22.772Z,100095.59
2023-03-12T20:58:49.750Z,100099.53
2023-03-12T21:01:24.354Z,100097.31
2023-03-12T21:04:10.973Z,100109.09
2023-03-12T21:06:37.364Z,100106.56
2023-03-12T21:09:04.388Z,100111.16
2023-03-12T21:11:31.355Z,100112.50
2023-03-12T21:14:00.212Z,100124.44
2023-03-12T21:16:26.693Z,100120.28
2023-03-12T21:18:56.652Z,100110.66
2023-03-12T21:21:23.215Z,100108.84
2023-03-12T21:23:49.667Z,100106.88
2023-03-12T21:26:18.206Z,100104.94
2023-03-12T21:28:44.973Z,100110.81
2023-03-12T21:31:13.582Z,100109.31
2023-03-12T21:33:40.134Z,100110.41
2023-03-12T21:36:08.654Z,100104.44
2023-03-12T21:38:35.979Z,100102.06
2023-03-12T21:41:10.553Z,100089.09
2023-03-12T21:43:36.954Z,100084.34
2023-03-12T21:46:05.352Z,100091.50
2023-03-12T21:48:31.912Z,100084.63
2023-03-12T21:51:05.974Z,100084.19
2023-03-12T21:53:32.521Z,100082.44
2023-03-12T21:56:00.720Z,100092.72
2023-03-12T21:58:29.054Z,100104.53
2023-03-12T22:01:13.103Z,100106.50
2023-03-12T22:03:40.931Z,100094.88
2023-03-12T22:06:08.136Z,100091.38
2023-03-12T22:08:34.641Z,100090.38
2023-03-12T22:11:01.142Z,100096.00
2023-03-12T22:13:27.643Z,100105.19
2023-03-12T22:15:59.127Z,100105.03
2023-03-12T22:18:26.101Z,100097.41
2023-03-12T22:20:53.985Z,100094.16
2023-03-12T22:23:21.111Z,100089.19
2023-03-12T22:25:47.938Z,100085.91
2023-03-12T22:28:15.332Z,100090.16
2023-03-12T22:30:42.295Z,100095.63
2023-03-12T22:33:09.090Z,100091.56
2023-03-12T22:35:35.542Z,100090.59
2023-03-12T22:38:01.914Z,100082.19
2023-03-12T22:40:28.429Z,100082.84
2023-03-12T22:42:57.325Z,100064.81
2023-03-12T22:45:23.672Z,100071.94
2023-03-12T22:47:50.061Z,100082.47
2023-03-12T22:50:16.567Z,100075.59
2023-03-12T22:52:42.926Z,100074.25
2023-03-12T22:55:09.402Z,100078.91
2023-03-12T22:57:37.029Z,100078.78
2023-03-12T23:00:26.520Z,100081.38
2023-03-12T23:02:52.873Z,100078.47
2023-03-12T23:05:19.288Z,100070.44
2023-03-12T23:07:45.679Z,100074.22
2023-03-12T23:10:12.058Z,100076.25
2023-03-12T23:12:38.432Z,100071.22
2023-03-12T23:15:06.003Z,100065.69
2023-03-12T23:17:33.758Z,100067.31
2023-03-12T23:20:04.287Z,100059.41
2023-03-12T23:22:30.830Z,100062.78
2023-03-12T23:24:57.187Z,100057.88
2023-03-12T23:27:23.550Z,100060.84
2023-03-12T23:29:49.881Z,100053.44
2023-03-12T23:32:16.934Z,100059.41
2023-03-12T23:34:43.355Z,100050.94
2023-03-12T23:37:09.927Z,100051.75
2023-03-12T23:39:48.452Z,100057.63
2023-03-12T23:42:20.613Z,100053.69
2023-03-12T23:44:47.291Z,100053.06
2023-03-12T23:47:13.673Z,100043.13
2023-03-12T23:49:40.042Z,100047.38
2023-03-12T23:52:06.485Z,100042.53
2023-03-12T23:54:32.832Z,100048.69
2023-03-12T23:56:59.238Z,100045.69
2023-03-12T23:59:25.634Z,100065.06
